Ekin-s — TCMW3 — position and weather

sailwx.info

Track history (hours):
 
Tides and Currents Weather Stations Pressure Air Temp Water Temp Dewpoint Dewpoint Depression Visibility Wind Speed Wind Dir Waves Ship Positions

Ekin-s

Last reported at 2016-May-04 15:15 UTC. Time now 2016-May-04 21:09 UTC.
Position N 57°07' E 007°18'.

Length 109 m; draft 5.1 m.

Type: Ship. MMSI: 271042836.

Date/timePositionNaut miles runAvg speedWind from/ knotsBaromVisibWave heightAir tempDewpointWater temp
2016-May-04 15:15N 57°07' E 007°18'10512.0
2016-May-04 06:31N 58°12' E 009°52'1212.5
2016-May-04 05:33N 58°21' E 010°08'1513.0
2016-May-04 04:23N 58°35' E 010°18'1012.6
2016-May-04 03:34N 58°45' E 010°25'1211.8
2016-May-04 02:34N 58°56' E 010°33'1211.7
2016-May-04 01:34N 59°07' E 010°34'1212.4
2016-May-04 00:33N 59°20' E 010°33'1 0.9
2016-May-03 23:34N 59°20' E 010°32'1 0.8
2016-May-03 22:34N 59°20' E 010°31'0 0.1
2016-May-03 21:33N 59°20' E 010°31'0 0.0
2016-May-03 20:33N 59°20' E 010°31'0 0.0
2016-May-03 19:33N 59°20' E 010°31'0 0.0
2016-May-03 18:33N 59°20' E 010°31'0 0.0
2016-May-03 17:33N 59°20' E 010°31'0 0.0
2016-May-03 16:33N 59°20' E 010°31'0 0.0
2016-May-03 15:33N 59°20' E 010°31'0 0.0
2016-May-03 14:33N 59°20' E 010°31'0 0.0
2016-May-03 13:33N 59°20' E 010°31'0 0.0
2016-May-03 12:33N 59°20' E 010°31'0 0.0
2016-May-03 11:33N 59°20' E 010°31'0 0.0
2016-May-03 10:33N 59°20' E 010°31'1 1.2
2016-May-03 09:33N 59°20' E 010°33'0 0.1
2016-May-03 08:33N 59°20' E 010°33'4 3.7
2016-May-03 07:33N 59°17' E 010°36'1010.2
2016-May-03 06:33N 59°07' E 010°36'6 5.6
2016-May-03 05:33N 59°01' E 010°34'7 7.0
2016-May-03 04:33N 58°55' E 010°26'8 8.0
2016-May-03 03:33N 58°51' E 010°13'1010.0
2016-May-03 02:33N 58°47' E 009°56'1110.7
2016-May-03 01:33N 58°41' E 009°38'1111.3
2016-May-03 00:33N 58°33' E 009°24'2311.4
2016-May-02 22:33N 58°16' E 008°54'1111.2
2016-May-02 21:33N 58°08' E 008°39'1111.2
2016-May-02 20:33N 58°01' E 008°23'4411.1
2016-May-02 16:33N 57°50' E 007°02'1110.7
2016-May-02 15:33N 57°55' E 006°43'1110.7
2016-May-02 14:31N 57°60' E 006°25'1010.6
2016-May-02 13:33N 58°07' E 006°11'9 9.4
2016-May-02 12:33N 58°14' E 005°59'9 9.4
2016-May-02 11:33N 58°20' E 005°46'9 8.9
2016-May-02 10:30N 58°26' E 005°32'8 8.5
2016-May-02 09:33N 58°34' E 005°26'8 7.9
2016-May-02 08:33N 58°41' E 005°20'9 9.2
2016-May-02 07:33N 58°47' E 005°08'9 9.4
2016-May-02 06:33N 58°55' E 004°56'9 9.3
2016-May-02 05:33N 59°03' E 004°47'9 9.1
2016-May-02 04:33N 59°11' E 004°40'9 7.8
2016-May-02 03:27N 59°20' E 004°36'282 7.6
2016-Apr-30 14:32N 63°30' E 009°05'1212.4
2016-Apr-30 13:33N 63°36' E 009°29'10 9.5
2016-Apr-30 12:33N 63°34' E 009°51'1211.7
2016-Apr-30 11:34N 63°28' E 010°12'4 4.0
2016-Apr-30 10:33N 63°27' E 010°21'0 0.0
2016-Apr-30 09:30N 63°27' E 010°21'0 0.0
2016-Apr-30 08:33N 63°27' E 010°21'0 0.0
2016-Apr-30 07:33N 63°27' E 010°21'0 0.0
2016-Apr-30 06:33N 63°27' E 010°21'0 0.0
2016-Apr-30 05:33N 63°27' E 010°21'0 0.0
2016-Apr-30 04:33N 63°27' E 010°21'0 0.0
2016-Apr-30 03:33N 63°27' E 010°21'0 0.0
2016-Apr-30 02:33N 63°27' E 010°21'0 0.0
2016-Apr-30 01:33N 63°27' E 010°21'0 0.0
2016-Apr-30 00:33N 63°27' E 010°21'0 0.0
2016-Apr-29 23:33N 63°27' E 010°21'1 0.5
2016-Apr-29 22:34N 63°27' E 010°20'1010.4
2016-Apr-29 21:34N 63°29' E 009°57'10 9.8
2016-Apr-29 20:31N 63°38' E 009°46'9 9.1
2016-Apr-29 19:34N 63°36' E 009°28'1212.4
2016-Apr-29 18:33N 63°29' E 009°03'  
2016-Apr-27 07:33N 54°19' E 005°05'10 9.9
2016-Apr-27 06:33N 54°10' E 005°10'9 9.1
2016-Apr-27 05:34N 54°01' E 005°06'9 8.8
2016-Apr-27 04:33N 53°53' E 005°01'9 8.7
2016-Apr-27 03:32N 53°45' E 004°55'9 8.3
2016-Apr-27 02:30N 53°37' E 004°50'33 7.9
2016-Apr-26 22:17N 53°06' E 004°27'6 8.0
2016-Apr-26 21:34N 53°01' E 004°22'8 7.9
2016-Apr-26 20:34N 52°54' E 004°17'9 8.6
2016-Apr-26 19:33N 52°47' E 004°09'10 9.6
2016-Apr-26 18:33N 52°39' E 003°60'9 9.1
2016-Apr-26 17:32N 52°30' E 003°55'9 8.5
2016-Apr-26 16:32N 52°22' E 003°52'7 7.7
2016-Apr-26 15:33N 52°14' E 003°53'7 6.8
2016-Apr-26 14:34N 52°08' E 003°55'6 6.3
2016-Apr-26 13:34N 52°02' E 003°59'9 8.7
2016-Apr-26 12:34N 51°57' E 004°10'6 5.5
2016-Apr-26 11:33N 51°53' E 004°16'0 0.0
2016-Apr-26 10:13N 51°53' E 004°16'0 0.0
2016-Apr-26 09:22N 51°53' E 004°16'0 0.0
2016-Apr-26 08:31N 51°53' E 004°16'0 0.0
2016-Apr-26 07:28N 51°53' E 004°16'0 0.0
2016-Apr-26 06:31N 51°53' E 004°16'0 0.0
2016-Apr-26 05:31N 51°53' E 004°16'0 0.0
2016-Apr-26 04:28N 51°53' E 004°16'0 0.0
2016-Apr-26 03:31N 51°53' E 004°16'0 0.0
2016-Apr-26 02:22N 51°53' E 004°16'0 0.0
2016-Apr-26 01:31N 51°53' E 004°16'0 0.0
2016-Apr-26 00:31N 51°53' E 004°16'0 0.0
2016-Apr-25 23:22N 51°53' E 004°16'0 0.0
2016-Apr-25 22:25N 51°53' E 004°16'0 0.0
2016-Apr-25 21:31N 51°53' E 004°16'0 0.0
2016-Apr-25 20:31N 51°53' E 004°16'0 0.0
2016-Apr-25 19:28N 51°53' E 004°16'0 0.0
2016-Apr-25 16:31N 51°53' E 004°16'0 0.0
2016-Apr-25 15:22N 51°53' E 004°16'0 0.0
2016-Apr-25 14:31N 51°53' E 004°16'0 0.0
2016-Apr-25 13:19N 51°53' E 004°16'0 0.0
2016-Apr-25 12:28N 51°53' E 004°16'0 0.0
2016-Apr-25 11:28N 51°53' E 004°16'0 0.0
2016-Apr-25 10:28N 51°53' E 004°16'0 0.0
2016-Apr-25 09:07N 51°53' E 004°16'0 0.0
2016-Apr-25 08:25N 51°53' E 004°16'0 0.1
2016-Apr-25 07:33N 51°53' E 004°16'2 2.3
2016-Apr-25 06:33N 51°55' E 004°14'1110.7
2016-Apr-25 05:33N 52°00' E 003°59'1111.2
2016-Apr-25 04:33N 52°03' E 003°42'6 0.5
2016-Apr-24 16:24N 52°08' E 003°38'  
Track history (hours):
 
Tides and Currents Weather Stations Pressure Air Temp Water Temp Dewpoint Dewpoint Depression Visibility Wind Speed Wind Dir Waves Ship Positions

Ekin-s

Last reported at 2016-May-04 15:15 UTC. Time now 2016-May-04 21:09 UTC.
Position N 57°07' E 007°18'.

Length 109 m; draft 5.1 m.

Type: Ship. MMSI: 271042836.

Date/timePositionNaut miles runAvg speedWind from/ knotsBaromVisibWave heightAir tempDewpointWater temp
2016-May-04 15:15N 57°07' E 007°18'10512.0
2016-May-04 06:31N 58°12' E 009°52'1212.5
2016-May-04 05:33N 58°21' E 010°08'1513.0
2016-May-04 04:23N 58°35' E 010°18'1012.6
2016-May-04 03:34N 58°45' E 010°25'1211.8
2016-May-04 02:34N 58°56' E 010°33'1211.7
2016-May-04 01:34N 59°07' E 010°34'1212.4
2016-May-04 00:33N 59°20' E 010°33'1 0.9
2016-May-03 23:34N 59°20' E 010°32'1 0.8
2016-May-03 22:34N 59°20' E 010°31'0 0.1
2016-May-03 21:33N 59°20' E 010°31'0 0.0
2016-May-03 20:33N 59°20' E 010°31'0 0.0
2016-May-03 19:33N 59°20' E 010°31'0 0.0
2016-May-03 18:33N 59°20' E 010°31'0 0.0
2016-May-03 17:33N 59°20' E 010°31'0 0.0
2016-May-03 16:33N 59°20' E 010°31'0 0.0
2016-May-03 15:33N 59°20' E 010°31'0 0.0
2016-May-03 14:33N 59°20' E 010°31'0 0.0
2016-May-03 13:33N 59°20' E 010°31'0 0.0
2016-May-03 12:33N 59°20' E 010°31'0 0.0
2016-May-03 11:33N 59°20' E 010°31'0 0.0
2016-May-03 10:33N 59°20' E 010°31'1 1.2
2016-May-03 09:33N 59°20' E 010°33'0 0.1
2016-May-03 08:33N 59°20' E 010°33'4 3.7
2016-May-03 07:33N 59°17' E 010°36'1010.2
2016-May-03 06:33N 59°07' E 010°36'6 5.6
2016-May-03 05:33N 59°01' E 010°34'7 7.0
2016-May-03 04:33N 58°55' E 010°26'8 8.0
2016-May-03 03:33N 58°51' E 010°13'1010.0
2016-May-03 02:33N 58°47' E 009°56'1110.7
2016-May-03 01:33N 58°41' E 009°38'1111.3
2016-May-03 00:33N 58°33' E 009°24'2311.4
2016-May-02 22:33N 58°16' E 008°54'1111.2
2016-May-02 21:33N 58°08' E 008°39'1111.2
2016-May-02 20:33N 58°01' E 008°23'4411.1
2016-May-02 16:33N 57°50' E 007°02'1110.7
2016-May-02 15:33N 57°55' E 006°43'1110.7
2016-May-02 14:31N 57°60' E 006°25'1010.6
2016-May-02 13:33N 58°07' E 006°11'9 9.4
2016-May-02 12:33N 58°14' E 005°59'9 9.4
2016-May-02 11:33N 58°20' E 005°46'9 8.9
2016-May-02 10:30N 58°26' E 005°32'8 8.5
2016-May-02 09:33N 58°34' E 005°26'8 7.9
2016-May-02 08:33N 58°41' E 005°20'9 9.2
2016-May-02 07:33N 58°47' E 005°08'9 9.4
2016-May-02 06:33N 58°55' E 004°56'9 9.3
2016-May-02 05:33N 59°03' E 004°47'9 9.1
2016-May-02 04:33N 59°11' E 004°40'9 7.8
2016-May-02 03:27N 59°20' E 004°36'282 7.6
2016-Apr-30 14:32N 63°30' E 009°05'1212.4
2016-Apr-30 13:33N 63°36' E 009°29'10 9.5
2016-Apr-30 12:33N 63°34' E 009°51'1211.7
2016-Apr-30 11:34N 63°28' E 010°12'4 4.0
2016-Apr-30 10:33N 63°27' E 010°21'0 0.0
2016-Apr-30 09:30N 63°27' E 010°21'0 0.0
2016-Apr-30 08:33N 63°27' E 010°21'0 0.0
2016-Apr-30 07:33N 63°27' E 010°21'0 0.0
2016-Apr-30 06:33N 63°27' E 010°21'0 0.0
2016-Apr-30 05:33N 63°27' E 010°21'0 0.0
2016-Apr-30 04:33N 63°27' E 010°21'0 0.0
2016-Apr-30 03:33N 63°27' E 010°21'0 0.0
2016-Apr-30 02:33N 63°27' E 010°21'0 0.0
2016-Apr-30 01:33N 63°27' E 010°21'0 0.0
2016-Apr-30 00:33N 63°27' E 010°21'0 0.0
2016-Apr-29 23:33N 63°27' E 010°21'1 0.5
2016-Apr-29 22:34N 63°27' E 010°20'1010.4
2016-Apr-29 21:34N 63°29' E 009°57'10 9.8
2016-Apr-29 20:31N 63°38' E 009°46'9 9.1
2016-Apr-29 19:34N 63°36' E 009°28'1212.4
2016-Apr-29 18:33N 63°29' E 009°03'  
2016-Apr-27 07:33N 54°19' E 005°05'10 9.9
2016-Apr-27 06:33N 54°10' E 005°10'9 9.1
2016-Apr-27 05:34N 54°01' E 005°06'9 8.8
2016-Apr-27 04:33N 53°53' E 005°01'9 8.7
2016-Apr-27 03:32N 53°45' E 004°55'9 8.3
2016-Apr-27 02:30N 53°37' E 004°50'33 7.9
2016-Apr-26 22:17N 53°06' E 004°27'6 8.0
2016-Apr-26 21:34N 53°01' E 004°22'8 7.9
2016-Apr-26 20:34N 52°54' E 004°17'9 8.6
2016-Apr-26 19:33N 52°47' E 004°09'10 9.6
2016-Apr-26 18:33N 52°39' E 003°60'9 9.1
2016-Apr-26 17:32N 52°30' E 003°55'9 8.5
2016-Apr-26 16:32N 52°22' E 003°52'7 7.7
2016-Apr-26 15:33N 52°14' E 003°53'7 6.8
2016-Apr-26 14:34N 52°08' E 003°55'6 6.3
2016-Apr-26 13:34N 52°02' E 003°59'9 8.7
2016-Apr-26 12:34N 51°57' E 004°10'6 5.5
2016-Apr-26 11:33N 51°53' E 004°16'0 0.0
2016-Apr-26 10:13N 51°53' E 004°16'0 0.0
2016-Apr-26 09:22N 51°53' E 004°16'0 0.0
2016-Apr-26 08:31N 51°53' E 004°16'0 0.0
2016-Apr-26 07:28N 51°53' E 004°16'0 0.0
2016-Apr-26 06:31N 51°53' E 004°16'0 0.0
2016-Apr-26 05:31N 51°53' E 004°16'0 0.0
2016-Apr-26 04:28N 51°53' E 004°16'0 0.0
2016-Apr-26 03:31N 51°53' E 004°16'0 0.0
2016-Apr-26 02:22N 51°53' E 004°16'0 0.0
2016-Apr-26 01:31N 51°53' E 004°16'0 0.0
2016-Apr-26 00:31N 51°53' E 004°16'0 0.0
2016-Apr-25 23:22N 51°53' E 004°16'0 0.0
2016-Apr-25 22:25N 51°53' E 004°16'0 0.0
2016-Apr-25 21:31N 51°53' E 004°16'0 0.0
2016-Apr-25 20:31N 51°53' E 004°16'0 0.0
2016-Apr-25 19:28N 51°53' E 004°16'0 0.0
2016-Apr-25 16:31N 51°53' E 004°16'0 0.0
2016-Apr-25 15:22N 51°53' E 004°16'0 0.0
2016-Apr-25 14:31N 51°53' E 004°16'0 0.0
2016-Apr-25 13:19N 51°53' E 004°16'0 0.0
2016-Apr-25 12:28N 51°53' E 004°16'0 0.0
2016-Apr-25 11:28N 51°53' E 004°16'0 0.0
2016-Apr-25 10:28N 51°53' E 004°16'0 0.0
2016-Apr-25 09:07N 51°53' E 004°16'0 0.0
2016-Apr-25 08:25N 51°53' E 004°16'0 0.1
2016-Apr-25 07:33N 51°53' E 004°16'2 2.3
2016-Apr-25 06:33N 51°55' E 004°14'1110.7
2016-Apr-25 05:33N 52°00' E 003°59'1111.2
2016-Apr-25 04:33N 52°03' E 003°42'6 0.5
2016-Apr-24 16:24N 52°08' E 003°38'  

Dump ship's entire track history